Time;durP1;ratioP1;P1;durP2;ratioP2;P2;SDS_P1;SDS_P2;PMS_P1;PMS_P2;Temp;Humidity;BMP_temperature;BMP_pressure;BME280_temperature;BME280_humidity;BME280_pressure;Samples;Min_cycle;Max_cycle;Signal;HPM_P1;HPM_P2
2021/09/20 00:04:55;;;;;;;7.32;5.68;;;;;;;13.19;53.72;100008.97;10395177;28;20056;-64
2021/09/20 00:09:57;;;;;;;8.85;5.50;;;;;;;13.28;53.13;100006.53;10394543;28;20091;-64
2021/09/20 00:14:59;;;;;;;10.05;5.43;;;;;;;13.35;53.17;100014.84;10394729;28;20424;-64
2021/09/20 00:20:03;;;;;;;10.00;5.82;;;;;;;13.55;53.21;100009.91;10394430;28;20080;-64
2021/09/20 00:25:05;;;;;;;8.70;5.57;;;;;;;13.46;52.48;100002.66;10394588;28;20097;-64
2021/09/20 00:30:08;;;;;;;8.85;5.90;;;;;;;13.47;52.88;100011.38;10393256;28;20061;-64
2021/09/20 00:35:10;;;;;;;7.82;5.30;;;;;;;13.32;52.29;100009.78;10394037;28;20560;-64
2021/09/20 00:40:12;;;;;;;7.78;5.32;;;;;;;13.29;52.72;100012.63;10393433;28;20053;-64
2021/09/20 00:45:14;;;;;;;7.45;5.47;;;;;;;13.31;52.70;100010.75;10393651;28;20063;-64
2021/09/20 00:50:16;;;;;;;7.28;5.28;;;;;;;13.23;52.55;100007.81;10393348;28;20527;-65
2021/09/20 00:55:17;;;;;;;7.85;5.40;;;;;;;13.28;53.28;100014.41;10393545;28;20427;-65
2021/09/20 01:00:19;;;;;;;7.18;5.82;;;;;;;13.10;52.48;100010.44;10393595;28;20067;-64
2021/09/20 01:05:21;;;;;;;7.80;5.55;;;;;;;12.96;52.71;100000.84;10393090;28;20049;-64
2021/09/20 01:10:23;;;;;;;8.35;5.75;;;;;;;12.72;52.90;100005.16;10392820;28;20064;-64
2021/09/20 01:15:25;;;;;;;6.68;5.13;;;;;;;12.97;52.86;100004.31;10391464;28;20510;-64
2021/09/20 01:20:27;;;;;;;10.75;5.78;;;;;;;13.00;52.74;100014.63;10392598;28;20061;-64
2021/09/20 01:25:31;;;;;;;9.90;5.75;;;;;;;12.75;52.97;100017.22;10392771;28;20124;-64
2021/09/20 01:30:32;;;;;;;8.52;5.68;;;;;;;12.67;52.91;100015.13;10392658;28;20057;-63
2021/09/20 01:35:34;;;;;;;7.82;5.18;;;;;;;12.83;53.00;100017.56;10392829;28;20137;-64
2021/09/20 01:40:36;;;;;;;7.78;5.78;;;;;;;12.91;52.65;100008.22;10392271;28;20061;-64
2021/09/20 01:45:38;;;;;;;10.70;5.38;;;;;;;13.05;53.48;100020.41;10400137;28;20535;-64
2021/09/20 01:50:40;;;;;;;8.70;6.03;;;;;;;13.07;52.27;100018.50;10400408;28;20050;-64
2021/09/20 01:55:42;;;;;;;7.97;5.80;;;;;;;12.94;52.63;100012.44;10400334;28;20441;-64
2021/09/20 02:00:45;;;;;;;7.40;5.53;;;;;;;13.04;52.70;100013.47;10399528;28;20063;-64
2021/09/20 02:05:47;;;;;;;8.52;5.70;;;;;;;13.13;53.01;100018.09;10399670;28;20053;-64
2021/09/20 02:10:49;;;;;;;11.30;5.72;;;;;;;13.24;52.88;100019.97;10399307;28;20054;-64
2021/09/20 02:15:50;;;;;;;8.70;5.95;;;;;;;13.22;52.85;100021.88;10399342;28;20502;-64
2021/09/20 02:20:52;;;;;;;8.60;5.63;;;;;;;13.15;52.33;100025.88;10399002;28;20084;-64
2021/09/20 02:25:54;;;;;;;10.15;5.72;;;;;;;13.17;52.98;100024.00;10399255;28;20057;-64
2021/09/20 02:30:56;;;;;;;8.05;6.00;;;;;;;13.27;52.56;100019.78;10398614;28;20201;-64
2021/09/20 02:35:58;;;;;;;7.60;5.63;;;;;;;13.27;53.35;100023.22;10398933;28;20053;-64
2021/09/20 02:41:00;;;;;;;13.45;5.78;;;;;;;13.31;53.34;100022.06;10398310;28;20488;-64
2021/09/20 02:46:02;;;;;;;8.88;5.95;;;;;;;13.28;52.99;100017.03;10398353;28;20394;-64
2021/09/20 02:51:04;;;;;;;9.10;5.93;;;;;;;13.19;53.05;100017.66;10398088;28;20319;-64
2021/09/20 02:56:07;;;;;;;8.20;6.03;;;;;;;13.20;52.76;100018.50;10397806;28;20067;-64
2021/09/20 03:01:08;;;;;;;8.07;6.03;;;;;;;13.03;52.95;100021.47;10397702;28;20063;-64
2021/09/20 03:06:10;;;;;;;10.82;6.00;;;;;;;13.00;53.08;100021.66;10397493;28;20444;-64
2021/09/20 03:11:12;;;;;;;7.05;6.00;;;;;;;12.71;52.97;100027.09;10396997;28;20425;-64
2021/09/20 03:16:13;;;;;;;8.50;6.07;;;;;;;12.74;53.42;100026.06;10397462;28;20159;-64
2021/09/20 03:21:19;;;;;;;7.90;6.07;;;;;;;12.67;52.96;100030.88;10395275;28;20068;-64
2021/09/20 03:26:20;;;;;;;9.77;6.20;;;;;;;12.70;53.33;100027.22;10397169;28;20053;-63
2021/09/20 03:31:22;;;;;;;9.52;6.43;;;;;;;12.89;53.13;100031.09;10396621;28;20413;-64
2021/09/20 03:36:24;;;;;;;9.55;6.10;;;;;;;12.93;52.74;100032.59;10396560;28;20045;-64
2021/09/20 03:41:26;;;;;;;7.93;6.03;;;;;;;12.70;53.04;100032.47;10396054;28;20152;-64
2021/09/20 03:46:28;;;;;;;8.07;6.28;;;;;;;12.61;53.16;100038.31;10396442;28;20054;-63
2021/09/20 03:51:30;;;;;;;10.40;6.30;;;;;;;12.70;53.04;100048.19;10395758;28;20084;-63
2021/09/20 03:56:32;;;;;;;9.00;5.63;;;;;;;12.81;53.30;100038.66;10396235;28;20057;-63
2021/09/20 04:01:33;;;;;;;9.85;6.20;;;;;;;12.96;53.25;100048.09;10395060;28;20451;-63
2021/09/20 04:06:35;;;;;;;8.15;5.93;;;;;;;12.92;52.79;100057.13;10393775;28;20137;-63
2021/09/20 04:11:40;;;;;;;9.30;6.03;;;;;;;12.77;53.22;100054.72;10394790;28;20057;-63
2021/09/20 04:16:42;;;;;;;8.02;5.88;;;;;;;12.83;53.19;100054.28;10394579;28;20061;-63
2021/09/20 04:21:43;;;;;;;9.30;6.55;;;;;;;12.93;53.17;100064.09;10395055;28;20510;-64
2021/09/20 04:26:45;;;;;;;8.85;6.20;;;;;;;12.89;52.94;100059.97;10394351;28;20054;-64
2021/09/20 04:31:47;;;;;;;8.82;6.47;;;;;;;12.83;52.53;100065.66;10393983;28;20053;-65
2021/09/20 04:36:49;;;;;;;11.45;6.80;;;;;;;12.74;52.96;100073.28;10394531;28;20053;-65
2021/09/20 04:41:51;;;;;;;9.75;6.30;;;;;;;12.84;52.72;100069.94;10394140;28;20049;-64
2021/09/20 04:46:53;;;;;;;9.23;6.45;;;;;;;12.53;53.21;100079.94;10393294;28;20136;-65
2021/09/20 04:51:54;;;;;;;9.65;6.15;;;;;;;12.54;52.94;100071.97;10393462;28;20064;-65
2021/09/20 04:56:56;;;;;;;8.45;6.95;;;;;;;12.47;53.43;100086.44;10393160;28;20162;-65
2021/09/20 05:01:58;;;;;;;8.93;6.18;;;;;;;12.63;53.17;100078.41;10393537;28;20054;-65
2021/09/20 05:07:00;;;;;;;7.18;6.22;;;;;;;12.63;53.57;100084.50;10391411;28;20079;-65
2021/09/20 05:12:01;;;;;;;11.38;6.43;;;;;;;12.70;53.53;100085.75;10393096;28;20084;-64
2021/09/20 05:17:05;;;;;;;7.47;6.53;;;;;;;12.79;52.71;100090.41;10392562;28;20588;-65
2021/09/20 05:22:06;;;;;;;8.30;6.40;;;;;;;12.84;52.66;100088.31;10392829;28;20069;-65
2021/09/20 05:27:08;;;;;;;9.38;6.63;;;;;;;12.70;52.48;100091.00;10392472;28;20136;-65
2021/09/20 05:32:10;;;;;;;7.53;6.00;;;;;;;12.59;53.38;100101.38;10392294;28;20137;-65
2021/09/20 05:37:12;;;;;;;12.82;6.93;;;;;;;12.71;53.17;100087.47;10392770;28;20569;-65
2021/09/20 05:42:16;;;;;;;8.90;6.43;;;;;;;12.50;53.23;100094.09;10392782;28;20061;-65
2021/09/20 05:47:17;;;;;;;10.07;6.53;;;;;;;12.68;53.01;100098.13;10392332;28;20148;-65
2021/09/20 05:52:22;;;;;;;8.38;7.22;;;;;;;12.82;52.89;100098.06;10392606;28;20502;-65
2021/09/20 05:57:23;;;;;;;11.95;7.53;;;;;;;12.89;52.60;100091.47;10392269;28;20050;-65
2021/09/20 06:02:25;;;;;;;8.20;6.85;;;;;;;12.70;53.05;100105.94;10391871;28;20057;-65
2021/09/20 06:07:27;;;;;;;11.32;7.38;;;;;;;12.65;53.05;100105.38;10391886;28;20528;-65
2021/09/20 06:12:29;;;;;;;9.77;7.10;;;;;;;12.77;53.07;100113.28;10392600;28;20603;-65
2021/09/20 06:17:31;;;;;;;11.85;7.43;;;;;;;12.87;52.61;100105.66;10392142;28;20060;-65
2021/09/20 06:22:33;;;;;;;9.75;7.63;;;;;;;12.96;52.45;100118.16;10391437;28;20065;-65
2021/09/20 06:27:36;;;;;;;12.60;6.88;;;;;;;13.20;51.96;100113.03;10391381;28;20048;-65
2021/09/20 06:32:39;;;;;;;13.48;7.45;;;;;;;12.98;52.27;100118.91;10398696;28;20059;-65
2021/09/20 06:37:41;;;;;;;11.60;6.90;;;;;;;13.02;52.31;100116.91;10398739;28;20054;-65
2021/09/20 06:42:43;;;;;;;8.70;7.15;;;;;;;13.32;51.57;100117.47;10396978;28;20053;-65
2021/09/20 06:47:45;;;;;;;9.23;7.32;;;;;;;13.21;51.66;100120.81;10398039;28;20053;-66
2021/09/20 06:52:46;;;;;;;13.55;7.82;;;;;;;13.07;51.98;100122.72;10397907;28;20448;-65
2021/09/20 06:57:48;;;;;;;9.15;7.28;;;;;;;13.19;51.28;100130.59;10396660;28;20049;-65
2021/09/20 07:02:50;;;;;;;8.60;6.90;;;;;;;13.48;51.36;100131.28;10397490;28;20127;-64
2021/09/20 07:07:53;;;;;;;10.38;7.20;;;;;;;13.75;50.70;100139.91;10397522;28;20060;-64
2021/09/20 07:12:54;;;;;;;10.60;7.20;;;;;;;13.81;50.20;100147.34;10397478;28;20520;-64
2021/09/20 07:17:56;;;;;;;10.48;7.75;;;;;;;13.67;50.74;100147.47;10397005;28;20494;-64
2021/09/20 07:22:58;;;;;;;11.00;7.00;;;;;;;13.42;50.89;100153.56;10395985;28;20064;-64
2021/09/20 07:27:59;;;;;;;10.95;7.65;;;;;;;13.50;51.11;100158.28;10396863;28;20085;-65
2021/09/20 07:33:01;;;;;;;13.75;7.50;;;;;;;13.57;50.67;100154.31;10396051;28;20053;-64
2021/09/20 07:38:03;;;;;;;12.13;7.32;;;;;;;13.82;50.55;100154.28;10396367;28;20049;-64
2021/09/20 07:43:05;;;;;;;13.18;7.32;;;;;;;13.71;50.21;100162.06;10396078;28;20059;-64
2021/09/20 07:48:07;;;;;;;12.48;7.07;;;;;;;13.76;50.34;100171.31;10396413;28;20053;-64
2021/09/20 07:53:09;;;;;;;15.15;7.40;;;;;;;13.91;50.02;100173.84;10395547;28;20413;-64
2021/09/20 07:58:12;;;;;;;9.10;7.32;;;;;;;13.52;50.85;100183.50;10395462;28;20057;-64
2021/09/20 08:03:14;;;;;;;11.77;7.45;;;;;;;13.49;50.38;100188.16;10395255;28;20457;-64
2021/09/20 08:08:16;;;;;;;10.75;7.20;;;;;;;13.57;50.55;100191.94;10395139;28;20643;-64
2021/09/20 08:13:19;;;;;;;9.77;7.10;;;;;;;13.67;50.39;100192.16;10395645;28;20053;-64
2021/09/20 08:18:21;;;;;;;9.25;7.43;;;;;;;13.97;50.14;100192.66;10394752;28;20490;-64
2021/09/20 08:23:22;;;;;;;12.02;7.55;;;;;;;14.32;49.62;100201.56;10394608;28;20098;-65
2021/09/20 08:28:25;;;;;;;12.15;8.15;;;;;;;14.36;49.17;100202.16;10395320;28;20060;-64
2021/09/20 08:33:26;;;;;;;10.13;7.72;;;;;;;14.19;49.75;100205.13;10394041;28;20407;-65
2021/09/20 08:38:28;;;;;;;10.27;7.60;;;;;;;14.51;49.46;100204.56;10394121;28;20505;-64
2021/09/20 08:43:31;;;;;;;8.40;7.07;;;;;;;14.57;48.96;100201.50;10393364;28;20519;-64
2021/09/20 08:48:38;;;;;;;10.65;7.93;;;;;;;14.76;48.64;100208.09;10393745;28;20085;-65
2021/09/20 08:53:40;;;;;;;10.00;6.95;;;;;;;15.04;48.49;100216.47;10392870;28;20064;-64
2021/09/20 08:58:42;;;;;;;9.10;7.45;;;;;;;14.87;48.21;100210.78;10393887;28;20133;-64
2021/09/20 09:03:44;;;;;;;9.63;7.63;;;;;;;14.99;48.47;100215.16;10393679;28;20151;-64
2021/09/20 09:08:46;;;;;;;12.20;6.70;;;;;;;15.59;47.48;100210.59;10392794;28;20346;-64
2021/09/20 09:13:48;;;;;;;10.73;7.55;;;;;;;15.93;47.07;100209.72;10393131;28;20050;-64
2021/09/20 09:19:07;;;;;;;10.30;7.28;;;;;;;16.09;45.75;100218.09;10392967;28;20060;-64
2021/09/20 09:24:15;;;;;;;10.13;7.80;;;;;;;16.02;45.98;100203.69;10392520;28;20506;-64
2021/09/20 09:29:18;;;;;;;9.00;7.07;;;;;;;16.18;45.52;100213.91;10393259;28;20050;-64
2021/09/20 09:34:30;;;;;;;8.45;7.00;;;;;;;16.05;45.96;100200.84;10393045;28;20590;-64
2021/09/20 09:39:31;;;;;;;12.32;7.10;;;;;;;16.33;45.42;100214.47;10392492;28;20354;-64
2021/09/20 09:44:34;;;;;;;12.25;7.32;;;;;;;16.37;45.57;100214.13;10392356;28;20169;-64
2021/09/20 09:49:36;;;;;;;9.32;7.30;;;;;;;16.69;45.25;100208.97;10391098;28;20096;-64
2021/09/20 09:54:43;;;;;;;11.10;7.50;;;;;;;16.68;44.58;100209.91;10392173;28;20056;-64
2021/09/20 10:00:13;;;;;;;11.02;7.20;;;;;;;17.46;43.27;100200.78;10392666;28;20136;-64
2021/09/20 10:05:18;;;;;;;10.70;7.55;;;;;;;17.85;42.32;100193.91;10396545;28;20061;-64
2021/09/20 10:10:26;;;;;;;10.23;7.53;;;;;;;18.19;41.79;100194.47;10398033;28;20428;-64
2021/09/20 10:15:28;;;;;;;8.10;6.85;;;;;;;17.94;41.96;100197.56;10399166;28;20061;-64
2021/09/20 10:20:30;;;;;;;9.07;6.95;;;;;;;17.85;42.28;100202.66;10397634;28;20120;-64
2021/09/20 10:25:32;;;;;;;10.38;7.10;;;;;;;17.80;43.14;100206.69;10398802;28;20059;-64
2021/09/20 10:30:35;;;;;;;10.68;6.82;;;;;;;17.54;43.23;100211.53;10398898;28;20063;-65
2021/09/20 10:35:37;;;;;;;7.82;7.00;;;;;;;17.46;43.19;100207.84;10398486;28;20131;-64
2021/09/20 10:40:39;;;;;;;11.18;7.60;;;;;;;17.46;43.42;100219.28;10398584;28;20144;-64
2021/09/20 10:45:46;;;;;;;10.35;7.15;;;;;;;17.22;43.67;100210.69;10398417;28;20064;-64
2021/09/20 10:50:58;;;;;;;8.93;7.22;;;;;;;17.35;43.41;100214.03;10398170;28;20435;-64
2021/09/20 10:56:03;;;;;;;8.93;6.78;;;;;;;17.57;43.46;100221.00;10398261;28;20060;-64
2021/09/20 11:01:26;;;;;;;9.23;6.78;;;;;;;17.55;43.42;100222.94;10397194;28;20156;-64
2021/09/20 11:06:34;;;;;;;9.90;6.38;;;;;;;17.39;43.66;100223.38;10397682;28;20132;-64
2021/09/20 11:11:42;;;;;;;11.70;6.82;;;;;;;17.36;44.02;100226.31;10397005;28;20425;-64
2021/09/20 11:16:46;;;;;;;;;;;;;;;17.09;44.17;100230.34;10397231;28;20045;-64
2021/09/20 11:22:03;;;;;;;9.77;6.78;;;;;;;17.37;43.32;100232.41;10396608;28;19925;-64
2021/09/20 11:27:27;;;;;;;8.40;6.47;;;;;;;17.34;43.35;100230.88;10396941;28;20140;-64
2021/09/20 11:32:28;;;;;;;8.50;7.18;;;;;;;17.38;43.60;100227.00;10396523;28;20072;-65
2021/09/20 11:37:32;;;;;;;12.75;6.93;;;;;;;17.54;43.47;100222.13;10396306;28;20147;-65
2021/09/20 11:42:35;;;;;;;14.95;6.30;;;;;;;17.66;43.65;100230.81;10396358;28;20545;-64
2021/09/20 11:47:44;;;;;;;10.48;6.88;;;;;;;17.63;43.09;100225.78;10395870;28;20505;-65
2021/09/20 11:52:55;;;;;;;9.65;7.07;;;;;;;17.88;42.76;100224.53;10395670;28;20058;-65
2021/09/20 11:58:02;;;;;;;8.90;6.47;;;;;;;17.96;42.97;100222.91;10394407;28;20627;-63
2021/09/20 12:03:08;;;;;;;8.75;6.95;;;;;;;17.89;43.18;100228.88;10395429;28;20067;-63
2021/09/20 12:08:15;;;;;;;9.73;6.35;;;;;;;17.70;43.44;100235.72;10393761;28;20143;-63
2021/09/20 12:13:22;;;;;;;9.57;6.35;;;;;;;17.68;43.28;100237.66;10394902;28;20061;-63
2021/09/20 12:18:28;;;;;;;9.13;6.75;;;;;;;17.64;43.15;100238.91;10394746;28;20128;-64
2021/09/20 12:23:33;;;;;;;10.07;7.00;;;;;;;17.57;43.77;100236.88;10394535;28;20057;-63
2021/09/20 12:28:39;;;;;;;8.13;6.50;;;;;;;17.98;43.55;100234.22;10393309;28;20068;-64
2021/09/20 12:33:51;;;;;;;9.07;6.82;;;;;;;17.72;43.44;100239.09;10394170;28;20104;-64
2021/09/20 12:39:10;;;;;;;8.48;6.70;;;;;;;17.57;43.54;100240.34;10394020;28;20057;-64
2021/09/20 12:44:26;;;;;;;9.95;6.60;;;;;;;17.49;44.39;100239.31;10392533;28;20057;-64
2021/09/20 12:49:28;;;;;;;7.72;6.32;;;;;;;17.48;44.37;100248.22;10393717;28;20707;-64
2021/09/20 12:54:31;;;;;;;10.30;6.65;;;;;;;17.48;44.15;100240.31;10393558;28;20051;-64
2021/09/20 12:59:34;;;;;;;7.75;6.43;;;;;;;17.52;43.90;100244.38;10393831;28;20811;-64
2021/09/20 13:04:38;;;;;;;8.80;6.28;;;;;;;17.44;44.39;100242.38;10393106;28;20471;-64
2021/09/20 13:09:57;;;;;;;11.40;6.78;;;;;;;17.55;43.26;100247.59;10434109;28;20142;-64
2021/09/20 13:15:01;;;;;;;10.40;6.63;;;;;;;17.63;43.60;100245.13;10433732;28;20144;-64
2021/09/20 13:20:13;;;;;;;8.02;6.30;;;;;;;18.05;42.52;100253.91;10432536;28;20076;-64
2021/09/20 13:25:22;;;;;;;11.30;6.20;;;;;;;18.37;42.38;100253.78;10432134;28;20065;-64
2021/09/20 13:30:24;;;;;;;6.80;6.10;;;;;;;18.28;42.70;100251.97;10416861;28;20080;-64
2021/09/20 13:35:29;;;;;;;9.82;6.43;;;;;;;18.10;42.59;100256.13;10392489;28;20523;-63
2021/09/20 13:40:32;;;;;;;11.63;6.40;;;;;;;18.04;42.78;100259.31;10398944;28;20056;-64
2021/09/20 13:45:34;;;;;;;9.55;7.03;;;;;;;17.87;43.02;100263.41;10400700;28;20061;-64
2021/09/20 13:50:37;;;;;;;8.68;6.88;;;;;;;17.60;43.86;100263.91;10400590;28;20428;-64
2021/09/20 13:55:40;;;;;;;8.02;6.72;;;;;;;17.72;43.16;100267.34;10400453;28;20061;-64
2021/09/20 14:00:43;;;;;;;10.32;6.57;;;;;;;17.71;43.04;100263.84;10400885;28;20057;-64
2021/09/20 14:05:45;;;;;;;9.88;6.50;;;;;;;17.75;43.37;100275.84;10399901;28;20140;-64
2021/09/20 14:10:50;;;;;;;8.95;6.70;;;;;;;17.64;43.17;100281.22;10399504;28;20061;-64
2021/09/20 14:15:53;;;;;;;8.75;6.68;;;;;;;17.45;43.77;100285.50;10399600;28;20060;-64
2021/09/20 14:20:55;;;;;;;10.35;6.32;;;;;;;17.48;44.07;100282.59;10399384;28;20140;-64
2021/09/20 14:25:57;;;;;;;10.43;6.38;;;;;;;17.61;44.14;100291.19;10399455;28;20062;-64
2021/09/20 14:30:58;;;;;;;10.68;6.90;;;;;;;17.65;44.14;100290.81;10398740;28;20075;-64
2021/09/20 14:36:00;;;;;;;9.18;6.53;;;;;;;17.63;43.92;100300.69;10398865;28;20773;-64
2021/09/20 14:41:02;;;;;;;7.55;6.53;;;;;;;17.44;44.27;100294.41;10398739;28;20058;-64
2021/09/20 14:46:07;;;;;;;11.02;7.15;;;;;;;17.26;43.97;100302.00;10398465;28;20056;-64
2021/09/20 14:51:11;;;;;;;9.35;6.90;;;;;;;17.12;44.67;100310.19;10396186;28;20073;-65
2021/09/20 14:56:13;;;;;;;8.00;6.47;;;;;;;17.18;44.48;100312.34;10398174;28;20148;-64
2021/09/20 15:01:15;;;;;;;8.55;6.55;;;;;;;17.38;43.99;100316.91;10397895;28;20497;-63
2021/09/20 15:06:17;;;;;;;9.20;6.32;;;;;;;17.34;43.57;100319.91;10397710;28;20059;-64
2021/09/20 15:11:18;;;;;;;8.50;7.00;;;;;;;17.23;43.93;100326.03;10396958;28;20145;-64
2021/09/20 15:16:22;;;;;;;10.50;6.78;;;;;;;17.07;44.40;100328.25;10395981;28;20160;-64
2021/09/20 15:21:24;;;;;;;7.93;6.28;;;;;;;17.12;44.55;100335.81;10396904;28;20057;-63
2021/09/20 15:26:26;;;;;;;17.05;6.40;;;;;;;16.96;44.06;100337.03;10396894;28;20061;-64
2021/09/20 15:31:27;;;;;;;11.40;5.82;;;;;;;16.69;44.65;100338.38;10396801;28;20655;-64
2021/09/20 15:36:29;;;;;;;8.85;6.38;;;;;;;16.61;44.84;100335.50;10396749;28;20061;-64
2021/09/20 15:41:31;;;;;;;7.82;6.55;;;;;;;16.54;44.77;100335.13;10396245;28;20049;-64
2021/09/20 15:46:33;;;;;;;9.38;6.35;;;;;;;16.60;45.09;100334.66;10396034;28;20056;-64
2021/09/20 15:51:39;;;;;;;8.27;5.97;;;;;;;16.58;44.43;100336.56;10396030;28;20063;-64
2021/09/20 15:56:40;;;;;;;8.93;6.47;;;;;;;16.61;44.62;100351.34;10395521;28;20536;-64
2021/09/20 16:01:42;;;;;;;13.60;6.25;;;;;;;16.35;45.22;100361.22;10394965;28;20140;-64
2021/09/20 16:06:45;;;;;;;7.40;5.60;;;;;;;16.44;45.41;100370.28;10395935;28;20061;-64
2021/09/20 16:11:46;;;;;;;8.25;6.35;;;;;;;16.32;45.27;100368.56;10394945;28;20616;-64
2021/09/20 16:16:48;;;;;;;9.02;6.28;;;;;;;16.22;45.37;100378.97;10394663;28;20064;-64
2021/09/20 16:21:50;;;;;;;10.98;6.10;;;;;;;15.89;45.62;100379.72;10393688;28;20045;-64
2021/09/20 16:26:51;;;;;;;7.53;6.18;;;;;;;15.97;46.39;100382.63;10394796;28;21283;-64
2021/09/20 16:31:53;;;;;;;10.15;5.43;;;;;;;16.02;45.12;100390.16;10394369;28;20051;-64
2021/09/20 16:36:55;;;;;;;9.48;5.88;;;;;;;16.00;46.28;100392.06;10394334;28;20059;-64
2021/09/20 16:41:57;;;;;;;7.18;5.72;;;;;;;15.95;45.69;100400.34;10394715;28;20444;-64
2021/09/20 16:46:59;;;;;;;9.32;5.05;;;;;;;15.81;45.64;100411.09;10393644;28;20049;-64
2021/09/20 16:52:00;;;;;;;10.63;6.13;;;;;;;15.89;46.14;100400.81;10392750;28;20068;-64
2021/09/20 16:57:02;;;;;;;10.25;5.63;;;;;;;15.96;45.86;100406.47;10394464;28;20054;-64
2021/09/20 17:02:04;;;;;;;7.65;5.22;;;;;;;15.80;45.81;100406.75;10393119;28;20049;-64
2021/09/20 17:07:06;;;;;;;7.25;5.30;;;;;;;15.69;45.73;100414.63;10393174;28;20061;-64
2021/09/20 17:12:08;;;;;;;7.68;5.00;;;;;;;15.59;46.65;100416.22;10392984;28;20065;-64
2021/09/20 17:17:10;;;;;;;8.50;5.13;;;;;;;15.66;46.15;100420.13;10393384;28;20425;-64
2021/09/20 17:22:11;;;;;;;8.45;5.07;;;;;;;15.48;45.64;100429.34;10392577;28;20060;-64
2021/09/20 17:27:14;;;;;;;11.43;4.80;;;;;;;15.35;46.49;100434.63;10392739;28;20417;-64
2021/09/20 17:32:16;;;;;;;8.00;4.95;;;;;;;15.29;46.35;100439.50;10392463;28;20137;-64
2021/09/20 17:37:18;;;;;;;7.30;4.78;;;;;;;15.25;46.35;100448.56;10423889;28;20092;-64
2021/09/20 17:42:20;;;;;;;10.93;4.72;;;;;;;15.18;45.99;100449.97;10433269;28;20059;-64
2021/09/20 17:47:21;;;;;;;11.65;4.30;;;;;;;15.18;46.74;100465.78;10432997;28;20045;-64
2021/09/20 17:52:27;;;;;;;7.10;4.88;;;;;;;15.19;47.64;100470.94;10433466;28;20048;-64
2021/09/20 17:57:28;;;;;;;8.73;4.72;;;;;;;15.14;46.65;100472.22;10433519;28;20083;-64
2021/09/20 18:02:30;;;;;;;9.07;4.90;;;;;;;15.15;47.22;100480.00;10432847;28;20071;-64
2021/09/20 18:07:32;;;;;;;6.50;4.80;;;;;;;15.15;47.00;100490.53;10432560;28;20421;-64
2021/09/20 18:12:35;;;;;;;8.13;4.93;;;;;;;15.16;47.26;100486.13;10432554;28;20053;-64
2021/09/20 18:17:37;;;;;;;7.95;5.05;;;;;;;15.22;46.95;100488.31;10432859;28;20057;-64
2021/09/20 18:22:44;;;;;;;7.32;4.97;;;;;;;15.16;47.10;100489.56;10391279;28;20058;-64
2021/09/20 18:27:47;;;;;;;6.38;5.10;;;;;;;15.03;47.07;100501.94;10397913;28;20083;-64
2021/09/20 18:32:49;;;;;;;7.00;5.07;;;;;;;14.87;47.20;100503.09;10398831;28;20568;-64
2021/09/20 18:37:51;;;;;;;6.32;5.32;;;;;;;14.83;47.53;100504.25;10397975;28;20049;-64
2021/09/20 18:42:53;;;;;;;7.65;5.80;;;;;;;14.76;47.73;100511.72;10399037;28;20136;-65
2021/09/20 18:47:54;;;;;;;9.65;5.40;;;;;;;14.82;48.88;100531.53;10398096;28;20543;-64
2021/09/20 18:52:56;;;;;;;7.82;6.18;;;;;;;14.93;48.60;100527.22;10396931;28;20565;-64
2021/09/20 18:57:58;;;;;;;9.95;6.13;;;;;;;14.94;48.10;100530.69;10398096;28;20053;-64
2021/09/20 19:03:00;;;;;;;8.48;5.32;;;;;;;14.91;48.55;100541.44;10398056;28;20068;-64
2021/09/20 19:08:03;;;;;;;8.10;6.30;;;;;;;14.90;47.79;100547.66;10397136;28;20060;-64
2021/09/20 19:13:05;;;;;;;10.00;6.28;;;;;;;14.84;48.12;100554.16;10397456;28;20060;-64
2021/09/20 19:18:14;;;;;;;7.85;5.95;;;;;;;14.73;48.54;100555.84;10396132;28;20050;-64
2021/09/20 19:23:16;;;;;;;8.52;6.43;;;;;;;14.76;49.26;100563.56;10397017;28;20143;-64
2021/09/20 19:28:18;;;;;;;8.43;6.35;;;;;;;14.60;49.21;100568.97;10397043;28;20339;-64
2021/09/20 19:33:19;;;;;;;9.25;6.45;;;;;;;14.71;49.64;100576.16;10395599;28;20054;-64
2021/09/20 19:38:21;;;;;;;9.48;6.72;;;;;;;14.57;48.74;100569.19;10396255;28;20420;-64
2021/09/20 19:43:23;;;;;;;7.85;6.10;;;;;;;14.49;49.70;100571.50;10396268;28;20057;-64
2021/09/20 19:48:24;;;;;;;10.68;6.95;;;;;;;14.46;49.13;100583.03;10396306;28;20085;-64
2021/09/20 19:53:26;;;;;;;10.20;6.63;;;;;;;14.50;49.29;100586.31;10395705;28;20524;-65
2021/09/20 19:58:30;;;;;;;12.10;6.72;;;;;;;14.54;49.32;100600.97;10395751;28;20575;-65
2021/09/20 20:03:32;;;;;;;9.43;6.78;;;;;;;14.40;49.23;100603.63;10395423;28;20057;-64
2021/09/20 20:08:34;;;;;;;8.52;6.20;;;;;;;14.24;49.58;100616.06;10395663;28;20248;-65
2021/09/20 20:13:36;;;;;;;9.13;6.70;;;;;;;14.13;49.82;100616.75;10394951;28;20076;-64
2021/09/20 20:18:38;;;;;;;10.50;6.82;;;;;;;14.12;49.91;100619.50;10395119;28;20319;-64
2021/09/20 20:23:43;;;;;;;9.65;6.45;;;;;;;14.11;50.26;100630.94;10394339;28;20136;-64
2021/09/20 20:28:46;;;;;;;13.23;6.57;;;;;;;14.25;49.86;100626.50;10394994;28;20054;-64
2021/09/20 20:33:50;;;;;;;9.50;6.43;;;;;;;14.26;49.35;100633.47;10394459;28;20054;-64
2021/09/20 20:38:52;;;;;;;11.00;6.10;;;;;;;14.23;49.50;100649.44;10394088;28;20088;-64
2021/09/20 20:43:54;;;;;;;12.05;6.30;;;;;;;14.15;49.26;100667.47;10393597;28;20065;-64
2021/09/20 20:48:56;;;;;;;8.45;5.70;;;;;;;14.05;49.20;100674.25;10393283;28;20147;-64
2021/09/20 20:53:58;;;;;;;9.98;6.57;;;;;;;13.98;49.32;100678.22;10393465;28;20509;-64
2021/09/20 20:59:00;;;;;;;9.80;5.32;;;;;;;13.87;49.27;100683.28;10406333;28;20096;-64
2021/09/20 21:04:01;;;;;;;7.20;5.38;;;;;;;13.90;49.61;100672.59;10434231;28;20140;-64
2021/09/20 21:09:03;;;;;;;8.95;5.55;;;;;;;13.86;49.34;100686.84;10433892;28;20057;-64
2021/09/20 21:14:05;;;;;;;7.38;5.45;;;;;;;14.00;49.61;100684.25;10434088;28;20395;-64
2021/09/20 21:19:07;;;;;;;6.63;5.47;;;;;;;14.10;49.14;100690.63;10432539;28;20049;-64
2021/09/20 21:24:08;;;;;;;6.70;5.47;;;;;;;14.01;49.42;100693.81;10433486;28;20060;-64
2021/09/20 21:29:10;;;;;;;8.93;5.07;;;;;;;14.08;49.50;100684.59;10428560;28;20057;-64
2021/09/20 21:34:12;;;;;;;7.40;5.20;;;;;;;14.13;49.22;100697.44;10392849;28;20049;-64
2021/09/20 21:39:14;;;;;;;9.15;5.55;;;;;;;14.18;49.54;100700.66;10392524;28;20146;-64
2021/09/20 21:44:15;;;;;;;6.80;5.22;;;;;;;14.19;48.70;100710.22;10392043;28;20185;-64
2021/09/20 21:49:17;;;;;;;6.45;4.93;;;;;;;14.07;49.02;100718.88;10392070;28;20050;-64
2021/09/20 21:54:19;;;;;;;6.97;4.85;;;;;;;13.92;49.29;100722.47;10392147;28;20050;-64
2021/09/20 21:59:20;;;;;;;7.13;5.10;;;;;;;14.03;49.17;100741.03;10394460;28;20045;-64
2021/09/20 22:04:22;;;;;;;7.45;5.07;;;;;;;14.09;49.31;100731.00;10400579;28;20064;-64
2021/09/20 22:09:25;;;;;;;8.13;4.68;;;;;;;14.15;49.06;100730.63;10399635;28;20087;-64
2021/09/20 22:14:27;;;;;;;7.70;4.53;;;;;;;14.04;48.77;100738.34;10399894;28;20053;-64
2021/09/20 22:19:28;;;;;;;7.40;4.75;;;;;;;13.85;48.73;100737.75;10398388;28;20068;-64
2021/09/20 22:24:30;;;;;;;11.13;4.82;;;;;;;13.87;48.72;100738.50;10399001;28;20053;-64
2021/09/20 22:29:32;;;;;;;15.20;4.60;;;;;;;13.90;48.82;100735.72;10399673;28;20057;-64
2021/09/20 22:34:34;;;;;;;8.45;4.97;;;;;;;13.93;49.84;100729.41;10398525;28;20140;-64
2021/09/20 22:39:35;;;;;;;8.38;4.95;;;;;;;13.94;50.26;100733.72;10398778;28;20088;-64
2021/09/20 22:44:37;;;;;;;8.00;4.85;;;;;;;13.98;49.99;100743.13;10398135;28;20055;-64
2021/09/20 22:49:39;;;;;;;7.68;4.82;;;;;;;14.01;50.34;100742.91;10398606;28;20057;-64
2021/09/20 22:54:41;;;;;;;10.10;4.70;;;;;;;14.04;50.34;100734.84;10397809;28;20057;-64
2021/09/20 22:59:43;;;;;;;6.90;5.07;;;;;;;13.94;50.91;100725.84;10397962;28;20560;-64
2021/09/20 23:04:45;;;;;;;8.95;4.93;;;;;;;13.86;51.52;100728.91;10397966;28;20053;-64
2021/09/20 23:09:48;;;;;;;6.15;4.68;;;;;;;13.71;51.59;100740.38;10396224;28;20053;-64